Time;durP1;ratioP1;P1;durP2;ratioP2;P2;SDS_P1;SDS_P2;PMS_P1;PMS_P2;Temp;Humidity;BMP_temperature;BMP_pressure;BME280_temperature;BME280_humidity;BME280_pressure;Samples;Min_cycle;Max_cycle;Signal;HPM_P1;HPM_P2
2022/01/19 00:01:42;;;;;;;1.00;0.90;;;4.90;99.90;;;4.62;100.00;102001.50;4916199;29;20697;-82
2022/01/19 00:04:10;;;;;;;1.35;1.25;;;4.90;99.90;;;4.59;100.00;101993.47;4918994;29;20628;-81
2022/01/19 00:06:39;;;;;;;0.70;0.70;;;4.90;99.90;;;4.58;100.00;101991.66;4906682;29;20230;-82
2022/01/19 00:09:09;;;;;;;0.68;0.68;;;4.90;99.90;;;4.55;100.00;101999.34;4944845;29;20251;-81
2022/01/19 00:11:37;;;;;;;1.20;1.10;;;4.90;99.90;;;4.54;100.00;101987.06;4926368;29;20214;-81
2022/01/19 00:14:07;;;;;;;1.00;0.90;;;4.90;99.90;;;4.57;100.00;101958.41;4934719;29;20299;-81
2022/01/19 00:16:35;;;;;;;0.73;0.73;;;4.90;99.90;;;4.54;100.00;101936.38;4908812;29;20235;-81
2022/01/19 00:19:03;;;;;;;0.85;0.85;;;4.90;99.90;;;4.59;100.00;101919.19;4936742;29;20203;-81
2022/01/19 00:21:34;;;;;;;1.40;1.27;;;4.80;99.90;;;4.57;100.00;101898.16;4926356;29;20227;-80
2022/01/19 00:24:02;;;;;;;0.55;0.55;;;4.80;99.90;;;4.55;100.00;101875.31;4913370;29;20218;-80
2022/01/19 00:26:35;;;;;;;0.68;0.68;;;4.80;99.90;;;4.51;100.00;101863.75;4913640;29;20261;-80
2022/01/19 00:29:03;;;;;;;0.98;0.88;;;4.80;99.90;;;4.50;100.00;101868.09;4908031;29;20207;-82
2022/01/19 00:31:31;;;;;;;0.60;0.60;;;4.80;99.90;;;4.44;100.00;101877.31;4905272;29;20225;-82
2022/01/19 00:34:01;;;;;;;0.50;0.50;;;4.80;99.90;;;4.43;100.00;101901.72;4927674;29;20682;-81
2022/01/19 00:36:29;;;;;;;0.60;0.60;;;4.80;99.90;;;4.40;100.00;101904.16;4906055;29;20233;-80
2022/01/19 00:38:57;;;;;;;0.80;0.80;;;4.80;99.90;;;4.42;100.00;101911.28;4925940;29;20207;-80
2022/01/19 00:41:25;;;;;;;0.73;0.73;;;4.70;99.90;;;4.40;100.00;101923.41;4933740;29;20210;-80
2022/01/19 00:43:56;;;;;;;0.90;0.80;;;4.70;99.90;;;4.41;100.00;101924.28;4935209;29;20211;-81
2022/01/19 00:46:24;;;;;;;0.77;0.70;;;4.70;99.90;;;4.39;100.00;101910.22;4931363;29;20234;-81
2022/01/19 00:48:52;;;;;;;0.40;0.40;;;4.70;99.90;;;4.33;100.00;101909.84;4917361;29;20213;-81
2022/01/19 00:51:25;;;;;;;0.70;0.70;;;4.70;99.90;;;4.34;100.00;101903.81;4928417;28;20239;-81
2022/01/19 00:53:53;;;;;;;0.82;0.80;;;4.60;99.90;;;4.29;100.00;101898.31;4909270;29;20226;-80
2022/01/19 00:56:21;;;;;;;0.60;0.60;;;4.60;99.90;;;4.30;100.00;101894.88;4915582;29;20227;-81
2022/01/19 00:58:49;;;;;;;0.50;0.50;;;4.60;99.90;;;4.25;100.00;101885.84;4914067;29;20206;-81
2022/01/19 01:01:17;;;;;;;0.57;0.57;;;4.50;99.90;;;4.30;100.00;101873.91;4931352;29;20222;-81
2022/01/19 01:03:45;;;;;;;0.40;0.40;;;4.60;99.90;;;4.27;100.00;101847.56;4933941;29;20222;-81
2022/01/19 01:06:14;;;;;;;0.70;0.70;;;4.50;99.90;;;4.28;100.00;101853.69;4899423;29;20231;-80
2022/01/19 01:08:44;;;;;;;0.50;0.50;;;4.50;99.90;;;4.28;100.00;101851.97;4930937;29;20218;-80
2022/01/19 01:11:17;;;;;;;0.60;0.60;;;4.60;99.90;;;4.24;100.00;101836.91;4915900;29;20241;-80
2022/01/19 01:16:40;;;;;;;0.60;0.60;;;4.50;99.90;;;4.24;100.00;101836.91;4913049;29;20237;-80
2022/01/19 01:19:10;;;;;;;0.70;0.70;;;4.50;99.90;;;4.22;100.00;101835.91;4922271;29;20211;-81
2022/01/19 01:21:39;;;;;;;0.63;0.63;;;4.50;99.90;;;4.24;100.00;101823.81;4915898;28;20214;-81
2022/01/19 01:24:10;;;;;;;0.60;0.60;;;4.50;99.90;;;4.20;100.00;101823.56;4936601;29;20222;-80
2022/01/19 01:26:38;;;;;;;0.60;0.60;;;4.50;99.90;;;4.14;100.00;101811.91;4902116;23;20243;-82
2022/01/19 01:29:06;;;;;;;0.63;0.63;;;4.50;99.90;;;4.18;100.00;101806.03;4925757;29;20206;-83
2022/01/19 01:31:34;;;;;;;0.60;0.60;;;4.50;99.90;;;4.15;100.00;101800.63;4911450;29;20241;-83
2022/01/19 01:34:02;;;;;;;0.80;0.80;;;4.50;99.90;;;4.16;100.00;101802.44;4896555;29;20217;-82
2022/01/19 01:36:30;;;;;;;0.50;0.50;;;4.50;99.90;;;4.16;100.00;101802.44;4907325;29;20239;-83
2022/01/19 01:39:02;;;;;;;0.60;0.60;;;4.50;99.90;;;4.18;100.00;101803.44;4916881;29;20222;-82
2022/01/19 01:41:30;;;;;;;0.50;0.50;;;4.40;99.90;;;4.16;100.00;101815.53;4909107;29;20211;-83
2022/01/19 01:44:06;;;;;;;0.52;0.52;;;4.50;99.90;;;4.13;100.00;101822.31;4892963;29;20211;-83
2022/01/19 01:46:57;;;;;;;1.00;1.00;;;4.50;99.90;;;4.07;100.00;101824.56;4894492;29;20231;-83
2022/01/19 01:49:42;;;;;;;0.60;0.60;;;4.50;99.90;;;4.07;100.00;101838.56;4916771;29;20239;-82
2022/01/19 01:55:04;;;;;;;0.60;0.60;;;4.40;99.90;;;4.07;100.00;101827.19;4924618;29;20234;-82
2022/01/19 01:57:32;;;;;;;0.43;0.43;;;4.40;99.90;;;4.04;100.00;101814.81;4923463;29;20219;-83
2022/01/19 02:00:06;;;;;;;0.50;0.50;;;4.40;99.90;;;4.00;100.00;101799.75;4886342;29;20567;-83
2022/01/19 02:02:48;;;;;;;0.60;0.60;;;4.40;99.90;;;3.96;100.00;101805.63;4935544;28;20211;-83
2022/01/19 02:05:22;;;;;;;0.47;0.47;;;4.40;99.90;;;3.93;100.00;101799.31;4919880;29;20241;-83
2022/01/19 02:08:06;;;;;;;0.60;0.60;;;4.40;99.90;;;3.89;100.00;101798.22;4913166;29;20214;-82
2022/01/19 02:10:59;;;;;;;0.40;0.40;;;4.30;99.90;;;3.86;100.00;101808.50;4923505;29;20235;-83
2022/01/19 02:16:30;;;;;;;0.60;0.60;;;4.30;99.90;;;3.88;100.00;101799.03;4904770;29;20223;-82
2022/01/19 02:24:20;;;;;;;0.40;0.40;;;4.30;99.90;;;3.86;100.00;101758.78;4883633;29;20222;-83
2022/01/19 02:40:51;;;;;;;0.50;0.50;;;3.90;99.90;;;3.24;100.00;101635.78;4939020;29;20207;-82
2022/01/19 02:43:24;;;;;;;0.50;0.50;;;3.80;99.90;;;3.22;100.00;101633.06;4895757;29;20207;-82
2022/01/19 02:51:49;;;;;;;0.60;0.60;;;3.60;99.90;;;2.99;100.00;101617.78;4928433;29;20230;-82
2022/01/19 02:54:27;;;;;;;0.60;0.60;;;3.50;99.90;;;2.84;100.00;101617.78;4915330;29;20210;-82
2022/01/19 02:57:01;;;;;;;0.50;0.50;;;3.30;99.90;;;2.77;100.00;101614.72;4868719;29;20235;-83
2022/01/19 03:10:18;;;;;;;0.60;0.60;;;3.00;99.90;;;2.53;100.00;101624.56;4941701;28;20214;-82
2022/01/19 03:12:46;;;;;;;0.40;0.40;;;3.00;99.90;;;2.46;100.00;101614.56;4925174;29;20216;-82
2022/01/19 03:15:15;;;;;;;0.40;0.40;;;2.90;99.90;;;2.49;100.00;101623.50;4931294;29;20598;-82
2022/01/19 03:17:44;;;;;;;0.70;0.70;;;2.90;99.90;;;2.41;100.00;101608.16;4937878;29;20207;-82
2022/01/19 03:20:16;;;;;;;0.35;0.35;;;2.80;99.90;;;2.27;100.00;101594.28;4919357;29;20210;-83
2022/01/19 03:22:58;;;;;;;0.40;0.40;;;2.80;99.90;;;2.21;100.00;101593.91;4870463;29;20223;-82
2022/01/19 03:25:26;;;;;;;0.50;0.50;;;2.80;99.90;;;2.14;100.00;101592.63;4917531;29;20364;-83
2022/01/19 03:27:57;;;;;;;0.68;0.68;;;2.70;99.90;;;2.02;100.00;101588.38;4899575;29;20207;-82
2022/01/19 03:30:26;;;;;;;0.60;0.60;;;2.50;99.90;;;1.94;100.00;101577.47;4946388;28;20219;-82
2022/01/19 03:32:54;;;;;;;0.60;0.60;;;2.50;99.90;;;1.81;100.00;101568.00;4914029;29;20212;-82
2022/01/19 03:35:28;;;;;;;0.60;0.60;;;2.40;99.90;;;1.85;100.00;101580.41;4929691;29;20238;-82
2022/01/19 03:37:56;;;;;;;0.60;0.60;;;2.40;99.90;;;1.70;100.00;101569.03;4941499;28;20211;-82
2022/01/19 03:40:25;;;;;;;0.60;0.60;;;2.30;99.90;;;1.60;100.00;101551.91;4916507;29;20207;-82
2022/01/19 03:42:54;;;;;;;0.70;0.70;;;1.60;99.90;;;1.54;100.00;101555.84;4886271;29;20210;-82
2022/01/19 03:45:39;;;;;;;0.60;0.60;;;2.20;99.90;;;1.58;100.00;101550.00;4933221;29;20231;-82
2022/01/19 03:50:54;;;;;;;0.60;0.60;;;2.10;99.90;;;1.50;100.00;101541.72;4945462;28;20231;-82
2022/01/19 03:53:22;;;;;;;0.90;0.90;;;2.10;99.90;;;1.41;100.00;101550.66;4887875;29;20207;-82
2022/01/19 03:55:50;;;;;;;0.82;0.70;;;2.00;99.90;;;1.36;100.00;101546.84;4931957;29;20223;-82
2022/01/19 03:58:18;;;;;;;0.50;0.50;;;1.90;99.90;;;1.17;100.00;101524.81;4931490;29;20219;-82
2022/01/19 04:00:53;;;;;;;0.60;0.60;;;1.80;99.90;;;1.09;100.00;101532.94;4925737;29;20228;-82
2022/01/19 04:06:20;;;;;;;0.70;0.70;;;1.70;99.90;;;1.20;100.00;101542.34;4898220;29;20224;-82
2022/01/19 04:08:49;;;;;;;0.52;0.52;;;1.70;99.90;;;0.93;100.00;101523.22;4909901;29;20223;-82
2022/01/19 04:11:20;;;;;;;0.60;0.60;;;1.60;99.90;;;1.02;100.00;101535.94;4907108;29;20231;-82
2022/01/19 04:14:21;;;;;;;0.60;0.60;;;1.50;99.90;;;1.00;100.00;101542.75;4930960;28;20217;-80
2022/01/19 04:16:46;;;;;;;0.40;0.40;;;1.40;99.90;;;0.91;100.00;101536.16;4938567;28;20242;-82
2022/01/19 04:19:27;;;;;;;0.63;0.63;;;1.50;99.90;;;0.92;100.00;101547.47;4930659;29;20207;-82
2022/01/19 04:22:09;;;;;;;0.50;0.50;;;1.50;99.90;;;0.98;100.00;101553.09;4899532;29;20336;-82
2022/01/19 04:24:51;;;;;;;0.52;0.52;;;1.40;99.90;;;0.93;100.00;101546.66;4911031;29;20219;-82
2022/01/19 04:30:09;;;;;;;0.63;0.63;;;1.30;99.90;;;0.76;100.00;101534.25;4940271;28;20698;-82
2022/01/19 04:33:03;;;;;;;0.50;0.50;;;1.30;99.90;;;0.79;100.00;101543.16;4936125;28;20231;-82
2022/01/19 04:35:49;;;;;;;0.32;0.32;;;1.20;99.90;;;0.72;100.00;101532.25;4901426;29;20254;-82
2022/01/19 04:44:27;;;;;;;0.68;0.68;;;1.10;99.90;;;0.60;100.00;101524.53;4919850;29;20219;-81
2022/01/19 05:04:09;;;;;;;0.60;0.60;;;0.80;99.90;;;0.49;100.00;101539.44;4944230;28;20215;-82
2022/01/19 05:06:51;;;;;;;0.40;0.40;;;0.90;99.90;;;0.39;100.00;101528.31;4889870;29;20238;-82
2022/01/19 05:15:09;;;;;;;0.47;0.47;;;0.80;99.90;;;0.39;100.00;101543.94;4926510;29;20242;-82
2022/01/19 05:18:22;;;;;;;1.55;0.93;;;0.80;99.90;;;0.36;100.00;101535.91;4917904;29;20203;-82
2022/01/19 05:22:26;;;;;;;0.68;0.68;;;0.70;99.90;;;0.39;100.00;101543.94;4940919;28;20219;-82
2022/01/19 05:25:59;;;;;;;1.00;0.77;;;1.00;99.90;;;0.42;100.00;101539.84;4824568;29;20237;-82
2022/01/19 05:28:44;;;;;;;0.50;0.50;;;0.70;99.90;;;0.40;100.00;101559.66;4851682;29;20211;-82
2022/01/19 05:31:13;;;;;;;0.60;0.60;;;0.80;99.90;;;0.44;100.00;101558.16;4884816;29;20211;-82
2022/01/19 05:33:43;;;;;;;0.60;0.50;;;0.70;99.90;;;0.35;100.00;101542.81;4946242;29;20242;-82
2022/01/19 05:36:12;;;;;;;0.68;0.60;;;0.70;99.90;;;0.02;100.00;101514.53;4899134;29;20313;-82
2022/01/19 05:39:06;;;;;;;0.60;0.60;;;0.50;99.90;;;0.29;100.00;101564.13;4904721;29;20216;-82
2022/01/19 05:41:55;;;;;;;1.20;0.90;;;0.60;99.90;;;0.74;100.00;101598.34;4888550;29;20203;-82
2022/01/19 05:44:23;;;;;;;0.57;0.57;;;0.70;99.90;;;0.59;100.00;101574.78;4866616;29;20208;-82
2022/01/19 05:46:51;;;;;;;0.50;0.50;;;0.60;99.90;;;0.49;100.00;101555.06;4902205;29;20223;-82
2022/01/19 05:49:19;;;;;;;0.90;0.70;;;0.70;99.90;;;0.44;100.00;101556.44;4883242;29;20203;-82
2022/01/19 05:51:48;;;;;;;0.60;0.60;;;0.70;99.90;;;0.28;100.00;101543.22;4930100;29;20223;-82
2022/01/19 05:54:20;;;;;;;1.00;0.80;;;0.70;99.90;;;0.30;100.00;101542.50;4943552;28;20215;-82
2022/01/19 05:56:52;;;;;;;2.20;1.10;;;0.60;99.90;;;0.19;100.00;101529.56;4881843;29;20224;-82
2022/01/19 05:59:32;;;;;;;0.90;0.70;;;0.50;99.90;;;-0.10;100.00;101511.97;4881863;29;20598;-82
2022/01/19 06:02:04;;;;;;;0.50;0.50;;;0.50;99.90;;;-0.03;100.00;101528.09;4901470;29;20203;-82
2022/01/19 06:04:32;;;;;;;1.08;0.80;;;0.40;99.90;;;0.08;100.00;101546.16;4914292;29;20215;-82
2022/01/19 06:07:44;;;;;;;0.73;0.70;;;0.40;99.90;;;0.08;100.00;101539.25;4943249;29;20226;-82
2022/01/19 06:10:54;;;;;;;1.85;1.00;;;0.40;99.90;;;0.15;100.00;101545.78;4912272;29;20582;-82
2022/01/19 06:14:21;;;;;;;1.60;1.23;;;0.40;99.90;;;-0.06;100.00;101508.78;4899025;29;20230;-81
2022/01/19 06:18:09;;;;;;;3.58;1.42;;;0.30;99.90;;;-0.05;100.00;101503.69;4917025;29;20553;-81
2022/01/19 06:21:13;;;;;;;2.17;0.80;;;0.30;99.90;;;-0.23;100.00;101481.63;4911377;29;20214;-82
2022/01/19 06:24:02;;;;;;;1.55;0.80;;;0.20;99.90;;;-0.36;100.00;101477.28;4904302;29;20207;-83
2022/01/19 06:32:27;;;;;;;0.98;0.60;;;0.00;99.90;;;-0.25;100.00;101504.00;4922808;29;20210;-82
2022/01/19 06:35:24;;;;;;;1.05;0.80;;;1.10;99.90;;;-0.02;100.00;101528.97;4908196;29;20223;-81
2022/01/19 06:38:13;;;;;;;1.10;0.90;;;0.10;99.90;;;0.06;100.00;101532.16;4893854;29;20203;-82
2022/01/19 06:40:52;;;;;;;0.90;0.80;;;0.10;99.90;;;0.14;100.00;101533.56;4934051;28;20211;-81
2022/01/19 06:43:23;;;;;;;0.90;0.80;;;0.20;99.90;;;0.19;100.00;101529.56;4906065;29;20211;-82
2022/01/19 06:45:54;;;;;;;0.77;0.70;;;0.20;99.90;;;0.23;100.00;101522.09;4877183;29;20226;-82
2022/01/19 06:48:31;;;;;;;0.80;0.80;;;0.20;99.90;;;0.09;100.00;101498.53;4914474;29;20579;-82
2022/01/19 06:51:02;;;;;;;0.63;0.60;;;0.20;99.90;;;0.04;100.00;101494.72;4884365;29;20206;-82
2022/01/19 06:53:40;;;;;;;0.30;0.30;;;0.20;99.90;;;0.01;100.00;101494.53;4881312;29;20227;-82
2022/01/19 06:56:16;;;;;;;0.70;0.70;;;0.20;99.90;;;-0.03;100.00;101488.19;4908309;29;20226;-82
2022/01/19 06:58:45;;;;;;;0.90;0.80;;;0.20;99.90;;;-0.08;100.00;101487.88;4915676;29;20215;-81
2022/01/19 07:01:39;;;;;;;0.70;0.70;;;0.20;99.90;;;-0.18;100.00;101489.72;4895625;29;20538;-82
2022/01/19 07:04:16;;;;;;;1.10;1.00;;;0.10;99.90;;;-0.20;100.00;101487.03;4908791;29;20206;-82
2022/01/19 07:06:44;;;;;;;0.80;0.70;;;0.10;99.90;;;-0.18;100.00;101490.63;4872157;29;20254;-81
2022/01/19 07:09:12;;;;;;;0.30;0.30;;;0.10;99.90;;;-0.23;100.00;101493.72;4918287;29;20207;-81
2022/01/19 07:11:46;;;;;;;0.32;0.32;;;0.00;99.90;;;-0.24;100.00;101495.41;4933071;29;20206;-81
2022/01/19 07:14:17;;;;;;;0.68;0.68;;;0.00;99.90;;;-0.34;100.00;101483.47;4932856;29;20227;-81
2022/01/19 07:16:51;;;;;;;0.55;0.55;;;0.00;99.90;;;-0.41;100.00;101480.34;4897601;29;20251;-81
2022/01/19 07:19:20;;;;;;;0.70;0.70;;;-0.10;99.90;;;-0.55;100.00;101473.28;4915266;29;20707;-81
2022/01/19 07:21:49;;;;;;;0.60;0.60;;;-0.10;99.90;;;-0.45;100.00;101491.31;4904069;29;20215;-82
2022/01/19 07:24:17;;;;;;;0.40;0.40;;;-0.20;99.90;;;-0.62;100.00;101479.75;4893533;29;20211;-82
2022/01/19 07:26:47;;;;;;;0.32;0.32;;;-0.20;99.90;;;-0.58;100.00;101486.06;4938994;23;20237;-79
2022/01/19 07:29:17;;;;;;;1.05;0.90;;;-0.20;99.90;;;-0.68;100.00;101488.03;4899343;29;20694;-79
2022/01/19 07:31:58;;;;;;;0.80;0.70;;;-0.30;99.90;;;-0.74;100.00;101484.09;4884167;29;20212;-79
2022/01/19 07:34:31;;;;;;;0.85;0.60;;;-0.30;99.90;;;-0.75;100.00;101490.09;4902547;29;20231;-79
2022/01/19 07:37:04;;;;;;;0.98;0.80;;;-0.40;99.90;;;-0.73;100.00;101501.47;4897526;29;20231;-80
2022/01/19 07:39:32;;;;;;;0.80;0.70;;;-0.40;99.90;;;-0.65;100.00;101506.44;4852298;29;20204;-79
2022/01/19 07:42:02;;;;;;;0.52;0.50;;;-0.40;99.90;;;-0.77;100.00;101496.88;4911812;29;20213;-80
2022/01/19 07:44:49;;;;;;;0.90;0.80;;;-0.40;99.90;;;-0.69;100.00;101511.28;4908472;29;20235;-80
2022/01/19 07:47:28;;;;;;;1.00;0.80;;;-0.40;99.90;;;-0.69;100.00;101506.09;4895306;29;20211;-81
2022/01/19 07:50:15;;;;;;;1.13;0.77;;;-0.40;99.90;;;-0.74;100.00;101505.78;4899110;29;20200;-82
2022/01/19 07:52:53;;;;;;;0.90;0.70;;;-0.40;99.90;;;-0.71;100.00;101513.78;4882544;29;20235;-81
2022/01/19 07:55:42;;;;;;;1.52;0.95;;;-0.40;99.90;;;-0.66;100.00;101521.91;4895373;29;20240;-80
2022/01/19 07:58:29;;;;;;;1.92;0.95;;;-0.40;99.90;;;-0.67;100.00;101514.91;4910706;29;20208;-80
2022/01/19 08:01:19;;;;;;;1.60;0.90;;;-0.40;99.90;;;-0.59;100.00;101525.84;4880050;29;20200;-80
2022/01/19 08:04:11;;;;;;;1.45;0.90;;;-0.30;99.90;;;-0.56;100.00;101526.06;4904543;29;20224;-80
2022/01/19 08:06:54;;;;;;;0.63;0.50;;;-0.30;99.90;;;-0.53;100.00;101526.25;4864634;29;20599;-80
2022/01/19 08:09:23;;;;;;;1.08;0.70;;;-0.30;99.90;;;-0.51;100.00;101533.38;4897267;29;20219;-80
2022/01/19 08:11:52;;;;;;;0.75;0.60;;;-0.30;99.90;;;-0.51;100.00;101527.28;4873391;29;20212;-80
2022/01/19 08:14:33;;;;;;;1.23;0.80;;;-0.30;99.90;;;-0.58;100.00;101528.53;4896306;29;20576;-80
2022/01/19 08:17:01;;;;;;;1.45;0.90;;;-0.30;99.90;;;-0.52;100.00;101538.47;4897145;29;20229;-80
2022/01/19 08:19:34;;;;;;;1.17;0.80;;;-0.30;99.90;;;-0.48;100.00;101541.38;4912708;29;20216;-80
2022/01/19 08:22:05;;;;;;;2.30;1.60;;;-0.30;99.90;;;-0.45;100.00;101540.69;4902753;29;20227;-83
2022/01/19 08:24:39;;;;;;;1.30;0.90;;;-0.30;99.90;;;-0.32;100.00;101559.88;4866274;29;20220;-81
2022/01/19 08:27:12;;;;;;;1.20;1.00;;;-0.20;99.90;;;-0.28;100.00;101560.97;4884224;29;20706;-82
2022/01/19 08:29:47;;;;;;;0.80;0.70;;;-0.20;99.90;;;-0.34;100.00;101555.34;4879334;29;20209;-82
2022/01/19 08:32:23;;;;;;;1.15;0.80;;;-0.10;99.90;;;-0.19;100.00;101565.91;4890897;29;20220;-82
2022/01/19 08:35:27;;;;;;;0.75;0.57;;;-0.10;99.90;;;-0.13;100.00;101558.53;4885860;29;20236;-81
2022/01/19 08:37:58;;;;;;;1.48;1.02;;;;;;;-0.08;100.00;101549.38;4884584;29;20213;-81
2022/01/19 08:40:30;;;;;;;1.83;0.90;;;0.10;99.90;;;-0.06;100.00;101548.69;4911906;29;20216;-81
2022/01/19 08:43:15;;;;;;;0.90;0.52;;;0.10;99.90;;;-0.04;100.00;101552.28;4886311;29;20205;-82
2022/01/19 08:45:44;;;;;;;1.45;0.75;;;;;;;0.11;100.00;101564.56;4895132;29;20236;-82
2022/01/19 08:48:18;;;;;;;1.08;0.52;;;0.20;99.90;;;0.11;100.00;101556.78;4894496;29;20215;-84
2022/01/19 08:51:08;;;;;;;4.18;1.60;;;;;;;0.11;100.00;101555.06;4865442;29;20211;-83
2022/01/19 08:53:46;;;;;;;1.73;0.98;;;0.20;99.90;;;0.15;100.00;101559.69;4892880;29;20233;-82
2022/01/19 08:56:35;;;;;;;3.22;1.70;;;0.20;99.90;;;0.20;100.00;101550.50;4872247;29;20220;-82
2022/01/19 08:59:03;;;;;;;1.00;0.70;;;0.30;99.90;;;0.35;100.00;101567.94;4895581;29;20211;-81
2022/01/19 09:01:32;;;;;;;1.40;0.85;;;0.30;99.90;;;0.39;100.00;101569.94;4878146;29;20205;-82
2022/01/19 09:04:00;;;;;;;1.35;0.90;;;0.50;99.90;;;0.46;100.00;101578.28;4865989;29;20230;-82
2022/01/19 09:06:28;;;;;;;1.17;0.80;;;0.40;99.90;;;0.60;100.00;101593.13;4885058;29;20228;-82
2022/01/19 09:08:59;;;;;;;1.23;0.90;;;0.50;99.90;;;0.63;100.00;101582.91;4865934;29;20210;-82
2022/01/19 09:11:27;;;;;;;1.60;0.85;;;0.60;99.90;;;0.65;100.00;101585.63;4871162;29;20228;-82
2022/01/19 09:13:55;;;;;;;1.58;0.85;;;0.60;99.90;;;0.63;100.00;101582.91;4889847;29;20691;-82
2022/01/19 09:16:23;;;;;;;1.13;0.70;;;0.70;99.90;;;0.68;100.00;101579.72;4889859;29;20233;-82
2022/01/19 09:18:51;;;;;;;0.52;0.40;;;0.80;99.90;;;0.82;100.00;101605.88;4888246;29;20219;-82
2022/01/19 09:21:19;;;;;;;0.57;0.50;;;0.80;99.90;;;0.85;100.00;101607.78;4897593;29;20208;-82
2022/01/19 09:23:47;;;;;;;1.92;1.35;;;0.90;99.90;;;0.94;100.00;101614.50;4864249;29;20216;-82
2022/01/19 09:26:15;;;;;;;0.95;0.65;;;1.00;99.90;;;1.16;100.00;101619.41;4865841;29;20240;-82
2022/01/19 09:28:44;;;;;;;1.13;0.70;;;1.00;99.90;;;1.25;100.00;101606.06;4876752;29;20720;-82
2022/01/19 09:31:33;;;;;;;1.63;0.88;;;1.30;99.90;;;1.24;100.00;101591.25;4898629;29;20211;-82
2022/01/19 09:34:10;;;;;;;1.50;0.88;;;1.30;99.90;;;1.29;100.00;101595.03;4892911;29;20231;-82
2022/01/19 09:36:46;;;;;;;1.75;1.00;;;1.30;99.90;;;1.38;100.00;101586.94;4893824;29;20228;-82
2022/01/19 09:39:28;;;;;;;1.70;0.90;;;1.40;99.90;;;1.40;100.00;101568.00;4879355;29;20207;-82
2022/01/19 09:41:58;;;;;;;2.50;2.10;;;1.40;99.90;;;1.49;100.00;101578.09;4877337;29;20207;-83
2022/01/19 09:44:29;;;;;;;1.83;1.00;;;1.50;99.90;;;1.75;100.00;101596.28;4878298;29;20220;-83
2022/01/19 09:46:59;;;;;;;1.85;1.00;;;1.50;99.90;;;1.68;100.00;101562.81;4862896;29;20252;-83
2022/01/19 09:49:27;;;;;;;1.02;0.70;;;1.60;99.90;;;1.74;100.00;101562.31;4878686;29;20211;-83
2022/01/19 09:51:55;;;;;;;1.08;0.75;;;1.70;99.90;;;1.88;100.00;101559.72;4891217;29;20216;-83
2022/01/19 09:54:26;;;;;;;1.10;0.80;;;1.80;99.90;;;2.01;100.00;101564.00;4884309;29;20232;-82
2022/01/19 09:56:55;;;;;;;1.38;0.80;;;1.80;99.90;;;2.05;100.00;101552.94;4891915;29;20229;-82
2022/01/19 09:59:24;;;;;;;1.05;0.75;;;1.90;99.90;;;2.31;100.00;101551.91;4878359;29;20739;-82
2022/01/19 10:01:58;;;;;;;1.73;0.93;;;2.00;99.90;;;2.45;100.00;101553.63;4885532;29;20212;-82
2022/01/19 10:04:44;;;;;;;1.25;0.80;;;2.20;99.90;;;2.57;100.00;101553.44;4878083;29;20219;-82
2022/01/19 10:07:22;;;;;;;1.42;0.85;;;2.30;99.90;;;2.51;100.00;101535.69;4890194;29;20224;-82
2022/01/19 10:09:57;;;;;;;0.80;0.50;;;2.40;99.90;;;2.60;100.00;101524.00;4888828;29;20212;-82
2022/01/19 10:18:30;;;;;;;0.22;0.22;;;2.70;99.90;;;3.09;100.00;101539.09;4883584;29;20613;-82
2022/01/19 10:21:12;;;;;;;1.35;0.80;;;2.80;99.90;;;3.19;100.00;101530.94;4900497;29;20215;-82
2022/01/19 10:23:48;;;;;;;1.95;1.42;;;2.90;99.90;;;3.22;100.00;101518.06;4912604;29;20216;-82
2022/01/19 10:26:27;;;;;;;0.73;0.52;;;3.10;99.90;;;3.34;100.00;101514.31;4866891;29;20239;-82
2022/01/19 10:29:10;;;;;;;0.88;0.70;;;3.20;99.90;;;3.29;100.00;101501.00;4912192;29;20206;-82
2022/01/19 10:31:43;;;;;;;1.25;0.80;;;3.30;99.90;;;3.34;100.00;101490.78;4912593;29;20212;-82
2022/01/19 10:34:20;;;;;;;1.30;0.80;;;3.30;99.90;;;3.31;100.00;101486.28;4883700;29;20232;-81
2022/01/19 10:36:56;;;;;;;1.42;0.85;;;3.30;99.90;;;3.40;100.00;101486.78;4876619;29;20224;-82
2022/01/19 10:39:51;;;;;;;0.68;0.50;;;3.30;99.90;;;3.40;100.00;101463.25;4886461;29;20209;-82
2022/01/19 10:42:22;;;;;;;1.08;0.80;;;3.40;99.90;;;3.54;100.00;101451.81;4871000;29;20213;-82
2022/01/19 10:44:57;;;;;;;1.73;1.00;;;3.40;99.90;;;3.51;100.00;101424.59;4901000;29;20228;-81
2022/01/19 10:47:44;;;;;;;1.30;0.80;;;3.50;99.90;;;3.57;100.00;101418.78;4886328;29;20208;-81
2022/01/19 10:50:25;;;;;;;1.35;0.80;;;3.50;99.90;;;3.62;100.00;101402.53;4882300;29;20215;-81
2022/01/19 10:52:56;;;;;;;1.60;0.98;;;3.60;99.90;;;3.63;100.00;101401.69;4883874;29;20223;-81
2022/01/19 10:55:40;;;;;;;0.98;0.70;;;3.60;99.90;;;3.68;100.00;101402.84;4892508;29;20260;-81
2022/01/19 10:58:16;;;;;;;1.15;0.73;;;3.60;99.90;;;3.68;100.00;101409.78;4871193;29;20216;-82
2022/01/19 11:00:54;;;;;;;1.45;0.88;;;3.70;99.90;;;3.75;100.00;101397.09;4910475;29;20199;-83
2022/01/19 11:03:28;;;;;;;0.45;0.38;;;3.70;99.90;;;3.81;100.00;101399.13;4909012;29;20208;-83
2022/01/19 11:05:59;;;;;;;0.55;0.40;;;3.80;99.90;;;3.80;100.00;101390.38;4865184;29;20231;-83
2022/01/19 11:08:29;;;;;;;0.88;0.60;;;3.80;99.90;;;3.79;100.00;101391.22;4854318;29;20209;-82
2022/01/19 11:11:01;;;;;;;0.85;0.60;;;3.80;99.90;;;3.78;100.00;101393.75;4855483;29;20215;-81
2022/01/19 11:13:39;;;;;;;1.00;0.68;;;3.90;99.90;;;3.79;100.00;101396.44;4853784;29;20223;-81
2022/01/19 11:16:07;;;;;;;0.70;0.57;;;3.90;99.90;;;3.75;100.00;101393.59;4879079;29;20259;-81
2022/01/19 11:18:39;;;;;;;0.65;0.65;;;;;;;3.77;100.00;101394.56;4869025;29;20220;-81
2022/01/19 11:21:11;;;;;;;1.33;0.88;;;3.90;99.90;;;3.75;100.00;101384.03;4870175;29;20217;-81
2022/01/19 11:23:56;;;;;;;1.00;0.70;;;3.90;99.90;;;3.70;100.00;101371.53;4896096;29;20252;-81
2022/01/19 11:26:31;;;;;;;1.92;1.55;;;3.90;99.90;;;3.65;100.00;101368.69;4912027;29;20240;-82
2022/01/19 11:29:22;;;;;;;1.83;1.02;;;3.90;99.90;;;3.65;100.00;101366.06;4898481;29;20209;-81
2022/01/19 11:31:53;;;;;;;1.10;0.77;;;3.90;99.90;;;3.64;100.00;101360.75;4882209;29;20212;-81
2022/01/19 11:34:50;;;;;;;1.80;1.02;;;3.80;99.90;;;3.60;100.00;101345.72;4882844;29;20212;-81
2022/01/19 11:37:43;;;;;;;1.42;0.90;;;3.80;99.90;;;3.56;100.00;101341.16;4882781;29;20730;-82
2022/01/19 11:40:12;;;;;;;1.40;1.00;;;3.80;99.90;;;3.56;100.00;101355.13;4887024;29;20205;-82
2022/01/19 11:42:43;;;;;;;1.20;0.80;;;3.80;99.90;;;3.52;100.00;101341.00;4894675;29;20208;-82
2022/01/19 11:45:38;;;;;;;1.20;0.90;;;3.70;99.90;;;3.53;100.00;101350.63;4876584;29;20210;-82
2022/01/19 11:48:21;;;;;;;0.85;0.70;;;3.80;99.90;;;3.49;100.00;101358.25;4879468;29;20213;-82
2022/01/19 11:50:54;;;;;;;0.88;0.75;;;3.80;99.90;;;3.44;100.00;101344.03;4883228;29;20674;-81
2022/01/19 11:53:22;;;;;;;0.98;0.70;;;3.70;99.90;;;3.43;100.00;101343.13;4867703;29;20212;-82
2022/01/19 11:56:09;;;;;;;1.30;0.88;;;3.70;99.90;;;3.43;100.00;101337.91;4912736;29;20228;-81
2022/01/19 11:59:05;;;;;;;1.70;1.00;;;3.70;99.90;;;3.41;100.00;101333.41;4875734;29;20601;-81
2022/01/19 12:01:36;;;;;;;1.08;0.80;;;3.70;99.90;;;3.38;100.00;101325.41;4906504;29;20205;-82
2022/01/19 12:04:18;;;;;;;0.85;0.63;;;3.60;99.90;;;3.35;100.00;101326.16;4923005;29;20209;-82
2022/01/19 12:06:47;;;;;;;1.08;0.68;;;3.60;99.90;;;3.35;100.00;101325.25;4895615;29;20238;-82
2022/01/19 12:09:16;;;;;;;1.33;0.85;;;3.60;99.90;;;3.34;100.00;101311.28;4905350;29;20219;-82
2022/01/19 12:11:51;;;;;;;1.00;0.70;;;3.60;99.90;;;3.35;100.00;101309.56;4904686;29;20220;-82
2022/01/19 12:14:27;;;;;;;0.77;0.60;;;3.60;99.90;;;3.34;100.00;101311.28;4900642;29;20208;-81
2022/01/19 12:17:04;;;;;;;1.13;0.75;;;3.60;99.90;;;3.34;100.00;101313.00;4887818;29;20235;-81
2022/01/19 12:19:42;;;;;;;1.08;0.70;;;3.60;99.90;;;3.32;100.00;101305.06;4889903;29;20212;-81
2022/01/19 12:22:26;;;;;;;1.10;0.80;;;3.50;99.90;;;3.30;100.00;101296.25;4919519;29;20212;-82
2022/01/19 12:25:08;;;;;;;1.23;0.82;;;3.50;99.90;;;3.31;100.00;101297.16;4890109;29;20220;-81
2022/01/19 12:27:50;;;;;;;1.67;1.58;;;3.50;99.90;;;3.30;100.00;101305.81;4873449;29;20549;-81
2022/01/19 12:30:18;;;;;;;2.20;2.00;;;3.50;99.90;;;3.28;100.00;101289.16;4913072;29;20207;-82